Time;durP1;ratioP1;P1;durP2;ratioP2;P2;SDS_P1;SDS_P2;PMS_P1;PMS_P2;Temp;Humidity;BMP_temperature;BMP_pressure;BME280_temperature;BME280_humidity;BME280_pressure;Samples;Min_cycle;Max_cycle;Signal;HPM_P1;HPM_P2
2023/03/31 00:00:01;;;;;;;16.38;4.22;;;10.70;99.90;;;;;;5059187;28;20127;-68
2023/03/31 00:02:28;;;;;;;16.30;3.67;;;10.70;99.90;;;;;;5063031;28;20049;-69
2023/03/31 00:04:58;;;;;;;13.10;3.35;;;10.70;99.90;;;;;;5061586;28;20036;-68
2023/03/31 00:07:24;;;;;;;15.93;3.53;;;10.70;99.90;;;;;;5028093;28;20044;-68
2023/03/31 00:09:53;;;;;;;17.48;4.22;;;10.70;99.90;;;;;;5062812;28;20456;-69
2023/03/31 00:12:20;;;;;;;20.40;3.45;;;10.70;99.90;;;;;;5062064;28;20064;-68
2023/03/31 00:14:46;;;;;;;13.45;3.00;;;10.60;99.90;;;;;;5060038;28;20033;-69
2023/03/31 00:17:12;;;;;;;14.25;3.60;;;10.60;99.90;;;;;;5060794;28;20598;-69
2023/03/31 00:19:40;;;;;;;13.85;3.47;;;10.60;99.90;;;;;;5061597;28;20047;-68
2023/03/31 00:22:06;;;;;;;15.52;3.78;;;10.60;99.90;;;;;;5062249;28;20060;-69
2023/03/31 00:24:33;;;;;;;18.45;4.03;;;10.50;99.90;;;;;;5061222;28;20037;-69
2023/03/31 00:27:03;;;;;;;20.73;3.78;;;10.50;99.90;;;;;;5059919;28;20064;-69
2023/03/31 00:29:30;;;;;;;13.88;3.05;;;10.40;99.90;;;;;;5062583;28;20044;-69
2023/03/31 00:31:58;;;;;;;17.48;3.30;;;10.40;99.90;;;;;;5059249;28;20033;-68
2023/03/31 00:34:24;;;;;;;11.65;3.35;;;10.40;99.90;;;;;;5059708;28;20063;-69
2023/03/31 00:36:55;;;;;;;18.55;4.25;;;10.30;99.90;;;;;;5061720;28;20395;-68
2023/03/31 00:39:22;;;;;;;19.30;4.22;;;10.30;99.90;;;;;;5045653;28;20057;-69
2023/03/31 00:41:48;;;;;;;17.65;3.50;;;10.20;99.90;;;;;;5044139;28;20041;-68
2023/03/31 00:44:13;;;;;;;18.73;3.97;;;10.20;99.90;;;;;;5060686;28;20155;-69
2023/03/31 00:47:02;;;;;;;17.80;4.03;;;10.20;99.90;;;;;;5048310;28;20494;-68
2023/03/31 00:49:39;;;;;;;17.35;4.07;;;10.10;99.90;;;;;;5076160;28;20505;-68
2023/03/31 00:52:26;;;;;;;12.82;3.65;;;10.00;99.90;;;;;;5058934;28;20036;-69
2023/03/31 00:54:57;;;;;;;17.95;3.45;;;10.00;99.90;;;;;;5061970;28;20041;-69
2023/03/31 00:57:24;;;;;;;11.93;3.60;;;9.90;99.90;;;;;;5057508;28;20107;-69
2023/03/31 00:59:56;;;;;;;19.70;3.47;;;9.90;99.90;;;;;;5062909;28;20062;-68
2023/03/31 01:02:26;;;;;;;14.90;3.50;;;9.80;99.90;;;;;;5061078;28;20544;-69
2023/03/31 01:04:58;;;;;;;21.80;4.80;;;9.70;99.90;;;;;;5060432;28;20045;-68
2023/03/31 01:07:43;;;;;;;15.45;4.05;;;9.50;99.90;;;;;;5061174;28;20043;-68
2023/03/31 01:10:10;;;;;;;13.15;3.63;;;9.50;99.90;;;;;;5062439;28;20059;-68
2023/03/31 01:12:39;;;;;;;16.48;4.82;;;9.60;99.90;;;;;;5058873;28;20093;-68
2023/03/31 01:15:06;;;;;;;18.48;4.75;;;9.60;99.90;;;;;;5058155;28;20037;-68
2023/03/31 01:17:33;;;;;;;14.98;4.47;;;9.60;99.90;;;;;;5061800;28;20040;-69
2023/03/31 01:20:28;;;;;;;17.27;4.88;;;9.60;99.90;;;;;;5061370;28;20083;-69
2023/03/31 01:23:15;;;;;;;11.43;4.03;;;9.60;99.90;;;;;;5042221;28;20044;-68
2023/03/31 01:25:56;;;;;;;15.85;4.90;;;9.60;99.90;;;;;;5041714;28;20048;-69
2023/03/31 01:29:00;;;;;;;16.48;4.93;;;9.60;99.90;;;;;;5058714;28;20052;-69
2023/03/31 01:31:47;;;;;;;13.55;4.60;;;9.60;99.90;;;;;;5048872;28;20706;-68
2023/03/31 01:34:34;;;;;;;18.23;5.68;;;9.60;99.90;;;;;;5063920;28;20047;-69
2023/03/31 01:37:29;;;;;;;10.30;4.00;;;9.60;99.90;;;;;;5062141;28;20036;-68
2023/03/31 01:40:16;;;;;;;12.35;4.25;;;9.60;99.90;;;;;;5065469;28;20056;-69
2023/03/31 01:43:07;;;;;;;15.80;4.18;;;9.60;99.90;;;;;;5044306;28;20041;-69
2023/03/31 01:45:51;;;;;;;14.13;4.97;;;9.60;99.90;;;;;;5046553;28;20073;-68
2023/03/31 01:48:32;;;;;;;14.40;4.47;;;9.60;99.90;;;;;;5066806;28;20028;-68
2023/03/31 01:51:15;;;;;;;10.80;4.20;;;9.60;99.90;;;;;;5063216;28;20339;-68
2023/03/31 01:54:12;;;;;;;17.58;4.75;;;9.60;99.90;;;;;;5066982;28;20071;-69
2023/03/31 01:56:47;;;;;;;14.05;4.43;;;9.60;99.90;;;;;;5056500;28;20037;-69
2023/03/31 01:59:28;;;;;;;19.67;4.20;;;9.60;99.90;;;;;;5063676;28;20128;-68
2023/03/31 02:02:05;;;;;;;15.43;4.90;;;9.60;99.90;;;;;;5066216;28;20046;-69
2023/03/31 02:04:41;;;;;;;15.52;4.78;;;9.60;99.90;;;;;;5052962;28;20049;-69
2023/03/31 02:07:17;;;;;;;16.92;5.05;;;9.60;99.90;;;;;;5048284;28;20272;-69
2023/03/31 02:09:48;;;;;;;15.90;4.53;;;9.60;99.90;;;;;;5056645;28;20497;-69
2023/03/31 02:12:15;;;;;;;16.00;4.28;;;9.50;99.90;;;;;;5071129;28;20071;-69
2023/03/31 02:14:45;;;;;;;12.70;4.35;;;9.50;99.90;;;;;;5051401;28;20562;-68
2023/03/31 02:17:18;;;;;;;17.05;4.82;;;9.50;99.90;;;;;;5066979;28;20084;-68
2023/03/31 02:19:48;;;;;;;16.30;4.57;;;9.50;99.90;;;;;;5068400;28;20045;-69
2023/03/31 02:22:18;;;;;;;13.65;4.40;;;9.50;99.90;;;;;;5063153;28;20036;-69
2023/03/31 02:24:46;;;;;;;11.38;3.47;;;9.40;99.90;;;;;;5066267;28;21491;-69
2023/03/31 02:27:19;;;;;;;14.07;4.38;;;9.50;99.90;;;;;;5058678;28;20094;-68
2023/03/31 02:29:45;;;;;;;14.27;3.90;;;9.50;99.90;;;;;;5068329;28;20141;-68
2023/03/31 02:32:23;;;;;;;11.50;3.80;;;9.50;99.90;;;;;;5051564;28;20036;-68
2023/03/31 02:34:48;;;;;;;12.40;3.88;;;9.40;99.90;;;;;;5068668;28;20096;-69
2023/03/31 02:37:14;;;;;;;10.32;3.80;;;9.50;99.90;;;;;;5057966;28;20119;-69
2023/03/31 02:39:45;;;;;;;10.45;3.88;;;9.40;99.90;;;;;;5042821;28;20064;-68
2023/03/31 02:42:11;;;;;;;9.27;3.45;;;9.50;99.90;;;;;;5070604;28;20051;-68
2023/03/31 02:44:38;;;;;;;14.75;3.70;;;9.50;99.90;;;;;;5069436;28;20036;-68
2023/03/31 02:47:08;;;;;;;8.18;3.95;;;9.50;99.90;;;;;;5052075;28;20517;-69
2023/03/31 02:49:36;;;;;;;11.15;3.58;;;9.60;99.90;;;;;;5050926;28;20457;-69
2023/03/31 02:52:20;;;;;;;8.10;3.28;;;9.60;99.90;;;;;;5069029;28;20040;-69
2023/03/31 02:55:04;;;;;;;12.15;3.53;;;9.60;99.90;;;;;;5069087;28;20082;-69
2023/03/31 02:57:39;;;;;;;7.85;3.30;;;9.60;99.90;;;;;;5067149;28;20028;-69
2023/03/31 03:00:26;;;;;;;12.43;3.65;;;9.60;99.90;;;;;;5069408;28;20051;-69
2023/03/31 03:03:15;;;;;;;10.23;3.63;;;9.60;99.90;;;;;;5068430;28;20041;-69
2023/03/31 03:06:12;;;;;;;14.73;3.80;;;9.60;99.90;;;;;;5069633;28;20084;-69
2023/03/31 03:08:56;;;;;;;8.50;2.83;;;9.70;99.90;;;;;;5069753;28;20124;-68
2023/03/31 03:11:46;;;;;;;11.32;3.75;;;9.70;99.90;;;;;;5059988;28;20114;-69
2023/03/31 03:14:28;;;;;;;10.82;3.50;;;9.70;99.90;;;;;;5069238;28;20428;-68
2023/03/31 03:17:22;;;;;;;13.13;3.60;;;9.60;99.90;;;;;;5067953;28;20040;-68
2023/03/31 03:19:57;;;;;;;13.15;3.88;;;9.60;99.90;;;;;;5066026;28;20037;-68
2023/03/31 03:22:23;;;;;;;11.25;3.53;;;9.60;99.90;;;;;;5066104;28;20041;-68
2023/03/31 03:24:51;;;;;;;12.10;3.80;;;9.60;99.90;;;;;;5067912;28;20493;-69
2023/03/31 03:27:17;;;;;;;14.35;4.10;;;9.60;99.90;;;;;;5067571;28;20048;-69
2023/03/31 03:29:43;;;;;;;10.50;4.22;;;9.60;99.90;;;;;;5050678;28;20300;-69
2023/03/31 03:32:10;;;;;;;10.20;3.83;;;9.70;99.90;;;;;;5052089;28;20166;-68
2023/03/31 03:34:36;;;;;;;11.98;3.33;;;9.70;99.90;;;;;;5063604;28;20040;-68
2023/03/31 03:37:02;;;;;;;14.95;3.90;;;9.70;99.90;;;;;;5056827;28;20071;-69
2023/03/31 03:39:30;;;;;;;13.55;4.07;;;9.70;99.90;;;;;;5069710;28;20133;-69
2023/03/31 03:41:56;;;;;;;7.40;3.78;;;9.80;99.90;;;;;;5067273;28;20036;-69
2023/03/31 03:44:22;;;;;;;12.50;3.95;;;9.70;99.90;;;;;;5064629;28;20037;-68
2023/03/31 03:46:48;;;;;;;7.20;3.30;;;9.70;99.90;;;;;;5069837;28;20533;-68
2023/03/31 03:49:14;;;;;;;11.07;3.60;;;9.70;99.90;;;;;;5068402;28;20052;-68
2023/03/31 03:51:39;;;;;;;11.43;3.22;;;9.60;99.90;;;;;;5059151;28;20040;-68
2023/03/31 03:54:05;;;;;;;10.52;4.00;;;9.60;99.90;;;;;;5053990;28;20032;-68
2023/03/31 03:56:31;;;;;;;9.57;4.32;;;9.60;99.90;;;;;;5048333;28;20036;-67
2023/03/31 03:58:57;;;;;;;11.27;3.83;;;9.60;99.90;;;;;;5050514;28;20041;-68
2023/03/31 04:01:23;;;;;;;10.35;3.95;;;9.60;99.90;;;;;;5067112;28;20098;-68
2023/03/31 04:03:49;;;;;;;9.63;3.85;;;9.60;99.90;;;;;;5058183;28;20444;-68
2023/03/31 04:06:14;;;;;;;12.30;4.40;;;9.50;99.90;;;;;;5049542;28;20047;-68
2023/03/31 04:08:40;;;;;;;10.55;3.92;;;9.50;99.90;;;;;;5055262;28;20044;-67
2023/03/31 04:11:16;;;;;;;7.85;3.72;;;9.50;99.90;;;;;;5069231;28;20036;-67
2023/03/31 04:13:42;;;;;;;11.00;4.70;;;9.40;99.90;;;;;;5066857;28;20460;-67
2023/03/31 04:16:08;;;;;;;9.98;4.00;;;9.40;99.90;;;;;;5056370;28;20036;-67
2023/03/31 04:18:36;;;;;;;10.13;4.05;;;9.40;99.90;;;;;;5069052;28;20397;-67
2023/03/31 04:21:05;;;;;;;11.02;3.75;;;9.40;99.90;;;;;;5058802;28;20037;-67
2023/03/31 04:23:33;;;;;;;9.85;4.10;;;9.30;99.90;;;;;;5062729;28;20590;-67
2023/03/31 04:25:58;;;;;;;11.68;4.20;;;9.30;99.90;;;;;;5066906;28;20032;-67
2023/03/31 04:28:25;;;;;;;11.13;3.92;;;9.30;99.90;;;;;;5065495;28;20122;-67
2023/03/31 04:30:57;;;;;;;9.23;3.95;;;9.30;99.90;;;;;;5068807;28;20036;-67
2023/03/31 04:33:23;;;;;;;8.90;4.50;;;9.20;99.90;;;;;;5055094;28;20152;-67
2023/03/31 04:35:49;;;;;;;7.75;4.32;;;9.20;99.90;;;;;;5066179;28;20123;-67
2023/03/31 04:38:23;;;;;;;12.85;4.40;;;9.20;99.90;;;;;;5049911;28;20041;-67
2023/03/31 04:40:50;;;;;;;13.85;4.78;;;9.20;99.90;;;;;;5069624;28;20528;-66
2023/03/31 04:43:17;;;;;;;12.50;4.30;;;9.20;99.90;;;;;;5064179;28;20435;-67
2023/03/31 04:45:43;;;;;;;12.45;4.45;;;9.20;99.90;;;;;;5068593;28;20090;-66
2023/03/31 04:48:09;;;;;;;11.35;5.07;;;9.20;99.90;;;;;;5062447;28;20497;-67
2023/03/31 04:50:35;;;;;;;14.32;5.18;;;9.20;99.90;;;;;;5065903;28;20477;-67
2023/03/31 04:53:02;;;;;;;10.18;5.18;;;9.20;99.90;;;;;;5049863;28;20747;-67
2023/03/31 04:55:27;;;;;;;12.85;5.47;;;9.20;99.90;;;;;;5062954;28;20448;-67
2023/03/31 04:57:53;;;;;;;12.63;5.60;;;9.20;99.90;;;;;;5069338;28;20115;-67
2023/03/31 05:00:20;;;;;;;17.50;5.70;;;9.20;99.90;;;;;;5067528;28;20041;-67
2023/03/31 05:02:45;;;;;;;14.70;5.18;;;9.20;99.90;;;;;;5082831;28;20710;-67
2023/03/31 05:05:11;;;;;;;14.25;5.28;;;9.30;99.90;;;;;;5050495;28;20045;-67
2023/03/31 05:07:37;;;;;;;12.63;5.20;;;9.30;99.90;;;;;;5070812;28;20661;-67
2023/03/31 05:10:04;;;;;;;13.10;5.00;;;9.30;99.90;;;;;;5050801;28;20037;-67
2023/03/31 05:12:34;;;;;;;13.43;4.80;;;9.30;99.90;;;;;;5065125;28;20045;-68
2023/03/31 05:15:00;;;;;;;11.88;5.47;;;9.30;99.90;;;;;;5070418;28;20040;-68
2023/03/31 05:17:26;;;;;;;15.75;5.28;;;9.30;99.90;;;;;;5081085;28;20581;-67
2023/03/31 05:19:52;;;;;;;11.98;5.43;;;9.30;99.90;;;;;;5067693;28;20346;-67
2023/03/31 05:22:19;;;;;;;16.05;4.88;;;9.30;99.90;;;;;;5070075;28;20044;-67
2023/03/31 05:24:46;;;;;;;15.25;5.20;;;9.30;99.90;;;;;;5055563;28;20461;-67
2023/03/31 05:27:12;;;;;;;12.55;4.75;;;9.30;99.90;;;;;;5069678;28;20413;-67
2023/03/31 05:29:37;;;;;;;14.48;5.65;;;9.30;99.90;;;;;;5070058;28;20032;-67
2023/03/31 05:32:04;;;;;;;10.10;4.78;;;9.30;99.90;;;;;;5070540;28;20546;-67
2023/03/31 05:34:29;;;;;;;10.77;5.22;;;9.30;99.90;;;;;;5051619;28;20128;-67
2023/03/31 05:36:56;;;;;;;13.93;5.03;;;9.30;99.90;;;;;;5048864;28;20120;-67
2023/03/31 05:39:22;;;;;;;12.52;5.45;;;9.30;99.90;;;;;;5069563;28;20056;-67
2023/03/31 05:41:48;;;;;;;11.60;5.00;;;9.30;99.90;;;;;;5065241;28;20044;-67
2023/03/31 05:44:14;;;;;;;14.25;5.10;;;9.30;99.90;;;;;;5068160;28;20076;-67
2023/03/31 05:46:40;;;;;;;9.15;4.72;;;9.30;99.90;;;;;;5066845;28;20044;-67
2023/03/31 05:49:07;;;;;;;16.20;5.22;;;9.30;99.90;;;;;;5071154;28;20090;-68
2023/03/31 05:51:33;;;;;;;11.98;5.35;;;9.30;99.90;;;;;;5070593;28;20037;-67
2023/03/31 05:53:59;;;;;;;13.88;4.90;;;9.30;99.90;;;;;;5063876;28;20036;-68
2023/03/31 05:56:26;;;;;;;13.05;5.68;;;9.30;99.90;;;;;;5072088;28;20406;-67
2023/03/31 05:58:52;;;;;;;11.75;5.22;;;9.30;99.90;;;;;;5052226;28;20036;-67
2023/03/31 06:01:22;;;;;;;11.68;6.25;;;9.30;99.90;;;;;;5052245;28;20032;-68
2023/03/31 06:03:48;;;;;;;10.48;4.53;;;9.30;99.90;;;;;;5067880;28;20037;-68
2023/03/31 06:06:18;;;;;;;14.82;5.78;;;9.20;99.90;;;;;;5066422;28;20398;-68
2023/03/31 06:08:45;;;;;;;17.50;5.95;;;9.20;99.90;;;;;;5069319;28;20036;-68
2023/03/31 06:11:15;;;;;;;11.90;5.57;;;9.20;99.90;;;;;;5047293;28;20107;-67
2023/03/31 06:13:42;;;;;;;11.88;5.68;;;9.20;99.90;;;;;;5061841;28;20109;-68
2023/03/31 06:16:10;;;;;;;13.45;5.32;;;9.20;99.90;;;;;;5067293;28;20044;-68
2023/03/31 06:18:39;;;;;;;13.10;4.65;;;9.20;99.90;;;;;;5069766;28;20394;-68
2023/03/31 06:21:05;;;;;;;9.75;5.05;;;9.20;99.90;;;;;;5044878;28;20076;-68
2023/03/31 06:23:31;;;;;;;10.55;5.10;;;9.20;99.90;;;;;;5058603;28;20041;-68
2023/03/31 06:26:03;;;;;;;10.60;5.15;;;9.20;99.90;;;;;;5065076;28;20521;-68
2023/03/31 06:28:30;;;;;;;9.38;5.22;;;9.20;99.90;;;;;;5060488;28;20127;-68
2023/03/31 06:31:00;;;;;;;13.25;4.70;;;9.20;99.90;;;;;;5050349;28;20044;-68
2023/03/31 06:33:26;;;;;;;10.85;4.97;;;9.20;99.90;;;;;;5051704;28;20131;-68
2023/03/31 06:35:55;;;;;;;15.18;4.60;;;9.20;99.90;;;;;;5063936;28;20178;-68
2023/03/31 06:38:21;;;;;;;15.57;5.22;;;9.20;99.90;;;;;;5070323;28;20036;-68
2023/03/31 06:40:46;;;;;;;11.70;4.75;;;9.20;99.90;;;;;;5059740;28;20438;-68
2023/03/31 06:43:12;;;;;;;12.13;5.10;;;9.20;99.90;;;;;;5070919;28;20517;-68
2023/03/31 06:45:38;;;;;;;11.05;4.90;;;9.20;99.90;;;;;;5056115;28;20681;-68
2023/03/31 06:48:04;;;;;;;13.40;5.13;;;9.20;99.90;;;;;;5045051;28;20057;-68
2023/03/31 06:50:30;;;;;;;13.98;5.03;;;9.20;99.90;;;;;;5067610;28;20048;-68
2023/03/31 06:52:56;;;;;;;16.60;5.65;;;9.20;99.90;;;;;;5067559;28;20044;-68
2023/03/31 06:55:21;;;;;;;9.45;4.95;;;9.20;99.90;;;;;;5040298;28;20401;-68
2023/03/31 06:57:47;;;;;;;11.20;5.13;;;9.20;99.90;;;;;;5033984;28;20048;-68
2023/03/31 07:00:13;;;;;;;15.68;5.00;;;9.20;99.90;;;;;;5068123;28;20435;-68
2023/03/31 07:02:39;;;;;;;12.73;5.20;;;9.20;99.90;;;;;;5064116;28;20036;-68
2023/03/31 07:05:05;;;;;;;14.75;5.03;;;9.20;99.90;;;;;;5052316;28;20102;-68
2023/03/31 07:07:32;;;;;;;13.48;5.38;;;9.20;99.90;;;;;;5060267;28;20044;-68
2023/03/31 07:09:58;;;;;;;10.52;4.93;;;9.20;99.90;;;;;;5062275;28;20036;-68
2023/03/31 07:12:24;;;;;;;17.88;5.25;;;9.20;99.90;;;;;;5051748;28;20375;-68
2023/03/31 07:14:50;;;;;;;12.23;4.93;;;9.30;99.90;;;;;;5070523;28;20086;-68
2023/03/31 07:17:16;;;;;;;11.15;5.05;;;9.30;99.90;;;;;;5068121;28;20040;-68
2023/03/31 07:19:46;;;;;;;13.65;5.22;;;9.30;99.90;;;;;;5052487;28;20097;-68
2023/03/31 07:22:13;;;;;;;14.90;5.10;;;9.30;99.90;;;;;;5067366;28;20048;-68
2023/03/31 07:24:39;;;;;;;15.27;5.63;;;9.30;99.90;;;;;;5059685;28;20044;-68
2023/03/31 07:27:05;;;;;;;10.25;5.53;;;9.40;99.90;;;;;;5067023;28;20390;-68
2023/03/31 07:29:31;;;;;;;9.15;4.90;;;9.40;99.90;;;;;;5070041;28;20055;-67
2023/03/31 07:31:57;;;;;;;16.63;5.10;;;9.40;99.90;;;;;;5051723;28;20037;-67
2023/03/31 07:34:22;;;;;;;13.68;4.95;;;9.50;99.90;;;;;;5068123;28;20032;-68
2023/03/31 07:36:48;;;;;;;14.63;5.57;;;9.50;99.90;;;;;;5068856;28;20025;-68
2023/03/31 07:39:14;;;;;;;12.07;5.70;;;9.60;99.90;;;;;;5040785;28;20045;-68
2023/03/31 07:41:40;;;;;;;14.15;5.45;;;9.70;99.90;;;;;;5068842;28;20120;-68
2023/03/31 07:44:06;;;;;;;9.88;5.15;;;9.70;99.90;;;;;;5065764;28;20036;-68
2023/03/31 07:46:32;;;;;;;10.25;5.38;;;9.80;99.90;;;;;;5068810;28;20035;-68
2023/03/31 07:48:58;;;;;;;14.00;5.82;;;9.80;99.90;;;;;;5067584;28;20097;-68
2023/03/31 07:51:25;;;;;;;13.82;5.38;;;9.80;99.90;;;;;;5051066;28;20040;-68
2023/03/31 07:53:51;;;;;;;15.70;4.93;;;9.80;99.90;;;;;;5067372;28;20079;-68
2023/03/31 07:56:23;;;;;;;11.50;5.20;;;9.80;99.90;;;;;;5059356;28;20033;-68
2023/03/31 07:58:51;;;;;;;12.80;5.40;;;9.80;99.90;;;;;;5066490;28;20147;-67
2023/03/31 08:01:18;;;;;;;14.80;6.05;;;9.80;99.90;;;;;;5069515;28;20044;-67
2023/03/31 08:03:45;;;;;;;17.23;6.05;;;9.90;99.90;;;;;;5051263;28;20059;-68
2023/03/31 08:06:16;;;;;;;12.75;5.90;;;10.00;99.90;;;;;;5055824;28;20037;-68
2023/03/31 08:08:42;;;;;;;17.70;6.88;;;10.00;99.90;;;;;;5045355;28;20454;-68
2023/03/31 08:11:08;;;;;;;13.50;6.38;;;10.00;99.90;;;;;;5068007;28;20146;-68
2023/03/31 08:13:34;;;;;;;12.02;6.30;;;10.10;99.90;;;;;;5068592;28;20295;-68
2023/03/31 08:16:00;;;;;;;11.82;6.43;;;10.10;99.90;;;;;;5064614;28;20036;-68
2023/03/31 08:18:29;;;;;;;8.35;5.53;;;10.10;99.90;;;;;;5061568;28;20028;-68
2023/03/31 08:20:55;;;;;;;12.70;5.63;;;10.10;99.90;;;;;;5069160;28;20032;-68
2023/03/31 08:23:20;;;;;;;9.32;6.15;;;10.10;99.90;;;;;;5046079;28;20039;-67
2023/03/31 08:25:46;;;;;;;13.63;6.35;;;10.10;99.90;;;;;;5068959;28;20116;-68
2023/03/31 08:28:16;;;;;;;12.63;6.85;;;10.10;99.90;;;;;;5061838;28;20123;-68
2023/03/31 08:30:42;;;;;;;12.48;6.75;;;10.10;99.90;;;;;;5066622;28;20075;-68
2023/03/31 08:33:08;;;;;;;11.02;6.50;;;10.10;99.90;;;;;;5034692;28;20036;-68
2023/03/31 08:35:34;;;;;;;11.90;6.18;;;10.10;99.90;;;;;;5056800;28;20780;-68
2023/03/31 08:38:00;;;;;;;10.90;6.07;;;10.10;99.90;;;;;;5051744;28;20116;-68
2023/03/31 08:40:28;;;;;;;13.68;6.10;;;10.10;99.90;;;;;;5073244;28;20061;-68
2023/03/31 08:43:09;;;;;;;13.23;6.35;;;10.10;99.90;;;;;;5071280;28;20063;-68
2023/03/31 08:45:40;;;;;;;9.35;5.88;;;10.10;99.90;;;;;;5072252;28;20036;-68
2023/03/31 08:48:33;;;;;;;14.45;6.13;;;10.00;99.90;;;;;;5069881;28;20574;-68
2023/03/31 08:51:06;;;;;;;8.52;5.95;;;10.00;99.90;;;;;;5072188;28;20091;-68
2023/03/31 08:53:42;;;;;;;12.50;5.55;;;10.10;99.90;;;;;;5072779;28;20047;-68
2023/03/31 08:56:16;;;;;;;10.45;5.28;;;10.10;99.90;;;;;;5073019;28;20116;-68
2023/03/31 08:58:48;;;;;;;11.82;5.75;;;10.10;99.90;;;;;;5072169;28;20086;-68
2023/03/31 09:01:33;;;;;;;10.30;5.28;;;10.10;99.90;;;;;;5071378;28;20045;-68
2023/03/31 09:04:21;;;;;;;9.63;4.35;;;10.10;99.90;;;;;;5063351;28;20044;-68
2023/03/31 09:07:11;;;;;;;12.02;5.43;;;10.10;99.90;;;;;;5069437;28;20098;-68
2023/03/31 09:10:19;;;;;;;10.40;4.80;;;10.10;99.90;;;;;;5077568;28;20067;-68
2023/03/31 09:13:00;;;;;;;9.68;5.10;;;10.20;99.90;;;;;;5069583;28;20040;-68
2023/03/31 09:15:34;;;;;;;13.20;5.05;;;10.20;99.90;;;;;;5072915;28;20044;-68
2023/03/31 09:18:17;;;;;;;13.73;4.85;;;10.20;99.90;;;;;;5063461;28;20044;-68
2023/03/31 09:20:47;;;;;;;8.63;4.88;;;10.20;99.90;;;;;;5070566;28;20094;-68
2023/03/31 09:23:26;;;;;;;7.18;3.28;;;10.30;99.90;;;;;;5068481;28;20048;-67
2023/03/31 09:25:53;;;;;;;14.18;3.95;;;10.20;99.90;;;;;;5065163;28;20177;-68
2023/03/31 09:28:33;;;;;;;9.63;2.80;;;10.20;99.90;;;;;;5070436;28;20428;-68
2023/03/31 09:31:03;;;;;;;9.23;3.28;;;10.20;99.90;;;;;;5052691;28;20040;-68
2023/03/31 09:33:33;;;;;;;9.68;3.40;;;10.20;99.90;;;;;;5070653;28;20119;-68
2023/03/31 09:36:00;;;;;;;13.32;3.65;;;10.20;99.90;;;;;;5067309;28;20375;-68
2023/03/31 09:38:28;;;;;;;7.25;3.35;;;10.30;99.90;;;;;;5071595;28;20041;-68
2023/03/31 09:40:59;;;;;;;6.93;3.47;;;10.30;99.90;;;;;;5071968;28;20101;-68
2023/03/31 09:43:30;;;;;;;7.28;3.00;;;10.40;99.90;;;;;;5064674;28;20559;-68
2023/03/31 09:45:56;;;;;;;12.25;3.33;;;10.40;99.90;;;;;;5059385;28;20169;-68
2023/03/31 09:48:26;;;;;;;6.20;2.50;;;10.30;99.90;;;;;;5054324;28;20037;-68
2023/03/31 09:50:57;;;;;;;7.03;3.20;;;10.40;99.90;;;;;;5068032;28;20041;-68
2023/03/31 09:53:39;;;;;;;6.20;3.38;;;10.40;99.90;;;;;;5062732;28;20420;-68
2023/03/31 09:56:07;;;;;;;5.40;2.85;;;10.50;99.90;;;;;;5042898;28;20032;-68
2023/03/31 09:58:47;;;;;;;6.72;2.95;;;10.50;99.90;;;;;;5070528;28;20044;-68
2023/03/31 10:01:15;;;;;;;6.90;3.17;;;10.50;99.90;;;;;;5069782;28;20493;-68
2023/03/31 10:03:52;;;;;;;6.72;2.95;;;10.60;99.90;;;;;;5068123;28;20032;-68
2023/03/31 10:06:19;;;;;;;7.05;2.90;;;10.60;99.90;;;;;;5081728;28;20287;-68
2023/03/31 10:08:55;;;;;;;12.60;4.65;;;10.60;99.90;;;;;;5071011;28;20418;-68
2023/03/31 10:11:21;;;;;;;5.90;2.70;;;10.70;99.90;;;;;;5074317;28;20093;-68
2023/03/31 10:14:12;;;;;;;7.60;4.10;;;10.80;99.90;;;;;;5070722;28;20040;-68
2023/03/31 10:16:54;;;;;;;5.88;3.08;;;10.90;99.90;;;;;;5062515;28;20044;-68
2023/03/31 10:19:24;;;;;;;4.45;2.70;;;10.90;99.90;;;;;;5067267;28;20451;-68
2023/03/31 10:22:02;;;;;;;6.55;3.22;;;10.80;99.90;;;;;;5069729;28;20397;-68
2023/03/31 10:24:43;;;;;;;5.57;3.10;;;10.80;99.90;;;;;;5051399;28;20052;-68
2023/03/31 10:27:21;;;;;;;6.90;2.53;;;10.80;99.90;;;;;;5052542;28;20512;-68
2023/03/31 10:29:50;;;;;;;5.38;2.67;;;10.90;99.90;;;;;;5071146;28;20128;-68
2023/03/31 10:32:30;;;;;;;6.40;3.28;;;11.00;99.90;;;;;;5057397;28;20037;-68
2023/03/31 10:34:58;;;;;;;3.85;2.05;;;11.10;99.90;;;;;;5067573;28;20040;-68
2023/03/31 10:37:30;;;;;;;7.00;2.80;;;11.10;99.90;;;;;;5068848;28;20063;-68
2023/03/31 10:40:13;;;;;;;6.93;2.22;;;11.10;99.90;;;;;;5070704;28;20055;-68
2023/03/31 10:42:39;;;;;;;6.10;2.47;;;11.00;99.90;;;;;;5051192;28;20080;-68
2023/03/31 10:45:38;;;;;;;6.43;2.63;;;11.20;99.90;;;;;;5069089;28;20040;-68
2023/03/31 10:48:15;;;;;;;6.97;2.30;;;11.40;99.90;;;;;;5067347;28;20155;-68
2023/03/31 10:50:42;;;;;;;3.45;1.85;;;11.50;99.90;;;;;;5069605;28;20033;-68
2023/03/31 10:53:13;;;;;;;4.13;1.73;;;11.30;99.90;;;;;;5051874;28;20036;-68
2023/03/31 10:55:51;;;;;;;5.57;2.25;;;11.20;99.90;;;;;;5040697;28;20524;-68
2023/03/31 10:58:32;;;;;;;4.20;2.17;;;11.30;99.90;;;;;;5069112;28;20036;-68
2023/03/31 11:01:03;;;;;;;4.20;2.00;;;11.30;99.90;;;;;;5065794;28;20547;-68
2023/03/31 11:03:55;;;;;;;4.53;2.40;;;11.40;99.90;;;;;;5064767;28;20556;-68
2023/03/31 11:06:50;;;;;;;4.30;1.95;;;11.30;99.90;;;;;;5062722;28;20047;-68
2023/03/31 11:09:42;;;;;;;5.55;2.38;;;11.40;99.90;;;;;;5058387;28;20101;-68
2023/03/31 11:12:50;;;;;;;7.95;2.20;;;11.30;99.90;;;;;;5062859;28;20126;-68
2023/03/31 11:15:36;;;;;;;4.38;2.30;;;11.50;99.90;;;;;;5055083;28;20087;-68
2023/03/31 11:18:16;;;;;;;7.45;2.30;;;11.40;99.90;;;;;;5066319;28;20037;-68
2023/03/31 11:21:09;;;;;;;7.90;2.50;;;11.40;99.90;;;;;;5066567;28;20567;-68
2023/03/31 11:23:35;;;;;;;;;;;11.60;99.90;;;;;;5066841;28;20549;-68
2023/03/31 11:26:45;;;;;;;3.67;2.20;;;11.70;99.90;;;;;;5069880;28;19935;-68
2023/03/31 11:29:25;;;;;;;5.72;2.40;;;11.70;99.90;;;;;;5068892;28;20048;-68
2023/03/31 11:32:13;;;;;;;3.58;2.22;;;11.60;99.90;;;;;;5069867;28;20083;-68
2023/03/31 11:34:54;;;;;;;5.57;2.28;;;11.70;99.90;;;;;;5061918;28;20501;-68
2023/03/31 11:37:20;;;;;;;3.67;2.15;;;11.80;99.90;;;;;;5055614;28;20039;-68
2023/03/31 11:39:49;;;;;;;5.00;2.42;;;11.80;99.90;;;;;;5064067;28;20506;-68
2023/03/31 11:42:26;;;;;;;4.47;2.08;;;11.80;99.90;;;;;;5065430;28;20041;-68
2023/03/31 11:45:01;;;;;;;8.35;2.60;;;11.80;99.90;;;;;;5067151;28;20631;-68
2023/03/31 11:47:33;;;;;;;4.38;2.50;;;11.80;99.90;;;;;;5066760;28;20076;-68
2023/03/31 11:50:21;;;;;;;6.82;2.75;;;11.70;99.90;;;;;;5064129;28;20063;-68
2023/03/31 11:53:01;;;;;;;5.63;2.53;;;11.70;99.90;;;;;;5065972;28;20397;-68
2023/03/31 11:55:30;;;;;;;6.20;2.70;;;11.70;99.90;;;;;;5066189;28;20170;-68
2023/03/31 11:57:56;;;;;;;7.22;2.58;;;11.70;99.90;;;;;;5067675;28;20040;-68
2023/03/31 12:00:27;;;;;;;7.82;3.47;;;11.80;99.90;;;;;;5060295;28;20049;-68
2023/03/31 12:03:06;;;;;;;5.28;3.00;;;11.70;99.90;;;;;;5057555;28;20450;-68
2023/03/31 12:05:35;;;;;;;7.05;2.83;;;11.80;99.90;;;;;;5069511;28;20052;-68
2023/03/31 12:08:13;;;;;;;7.20;3.05;;;11.70;99.90;;;;;;5067561;28;20044;-68
2023/03/31 12:11:12;;;;;;;6.95;2.97;;;11.60;99.90;;;;;;5065847;28;20045;-68
2023/03/31 12:13:51;;;;;;;7.55;3.08;;;11.60;99.90;;;;;;5059727;28;20048;-68
2023/03/31 12:16:36;;;;;;;6.88;3.05;;;11.60;99.90;;;;;;5046434;28;20497;-68
2023/03/31 12:19:13;;;;;;;6.20;3.10;;;11.60;99.90;;;;;;5068346;28;20041;-68
2023/03/31 12:21:46;;;;;;;9.23;3.58;;;11.60;99.90;;;;;;5067861;28;20041;-68
2023/03/31 12:24:13;;;;;;;9.50;3.42;;;11.70;99.90;;;;;;5069245;28;20669;-69
2023/03/31 12:27:03;;;;;;;11.93;3.50;;;11.60;99.90;;;;;;5066662;28;20032;-68
2023/03/31 12:29:38;;;;;;;8.20;3.05;;;11.50;99.90;;;;;;5065631;28;20040;-68
2023/03/31 12:32:11;;;;;;;13.20;3.85;;;11.30;99.90;;;;;;5063018;28;20040;-68
2023/03/31 12:34:47;;;;;;;10.20;3.95;;;11.40;99.90;;;;;;5066244;28;20047;-69
2023/03/31 12:37:31;;;;;;;10.13;3.30;;;11.30;99.90;;;;;;5057830;28;20397;-69
2023/03/31 12:40:16;;;;;;;6.82;3.05;;;11.30;99.90;;;;;;5062940;28;20064;-68
2023/03/31 12:43:00;;;;;;;8.88;3.50;;;11.40;99.90;;;;;;5050895;28;20072;-68
2023/03/31 12:45:29;;;;;;;5.88;3.13;;;11.50;99.90;;;;;;5066188;28;20052;-68
2023/03/31 12:47:58;;;;;;;11.73;4.40;;;11.60;99.90;;;;;;5060994;28;20498;-68
2023/03/31 12:50:29;;;;;;;12.95;4.45;;;11.80;99.90;;;;;;5048791;28;20089;-68
2023/03/31 12:53:14;;;;;;;9.73;3.80;;;11.90;99.90;;;;;;5047487;28;20342;-68
2023/03/31 12:55:48;;;;;;;10.68;3.78;;;12.00;99.90;;;;;;5046564;28;20346;-69
2023/03/31 12:58:27;;;;;;;8.60;4.53;;;11.90;99.90;;;;;;5051945;28;20132;-68
2023/03/31 13:01:16;;;;;;;9.98;3.83;;;12.00;99.90;;;;;;5045138;28;20135;-69
2023/03/31 13:03:52;;;;;;;9.40;3.88;;;12.00;99.90;;;;;;5045874;28;20140;-68
2023/03/31 13:06:27;;;;;;;10.15;3.70;;;11.90;99.90;;;;;;5046864;28;20127;-68
2023/03/31 13:09:01;;;;;;;11.18;4.68;;;11.90;99.90;;;;;;5051553;28;20049;-68
2023/03/31 13:11:35;;;;;;;9.52;4.15;;;11.90;99.90;;;;;;5048887;28;20036;-69